Bubiyan, Kuwait

8:17 AM AST on October 26, 2014 (GMT +0300)
Abadan | Change Station
CLOSE
Current Station
Airport
Location: Abadan,
Elevation: 10 ft
Nearby Weather Stations

Elev 10 ft 30.37 °N, 48.25 °E | Updated 17 minutes ago

Clear
Clear
75 °F
Feels Like 75 °F
N
14
Wind Variable Wind from NNW

Today
High -- | Low -- °F
--% Chance of Precip.
Yesterday
High -- | Low -- °F
Precip. -- in
5:55 AM 5:05 PM
Waxing Crescent, 6% visible
Pressure 29.98 in
Visibility -9999.0 miles
Clouds
Dew Point 46 °F
Humidity 36%
Rainfall 0.00 in
Snow Depth Not available.
UV Not available.
Pollen Not available.
Air Quality Not available.
Flu Activity Not available.
METAR OIAA 260500Z 33012KT CAVOK 24/08 Q1015

More Conditions Fewer Conditions

Pressure 29.98 in
Visibility -9999.0 miles
Clouds
Dew Point 46 °F
Humidity 36%
Rainfall 0.00 in
Snow Depth Not available.
UV Not available.
Pollen Not available.
Air Quality Not available.
Flu Activity Not available.
METAR OIAA 260500Z 33012KT CAVOK 24/08 Q1015

More Conditions Fewer Conditions

10-Day Weather Forecast

Almanac

Astronomy

Oct. 26, 2014 Rise Set
Actual Time 5:55 AM AST 5:05 PM AST
Civil Twilight 5:31 AM AST 5:29 PM AST
Nautical Twilight 5:02 AM AST 5:57 PM AST
Astronomical Twilight 4:35 AM AST 6:25 PM AST
Moon 8:04 AM AST 7:04 PM AST
Length of Visible Light 11h 58m
Length of Day
11h 09m
Tomorrow will be 1m 37s shorter.
Waxing Crescent, 6% of the Moon is Illuminated
Today
Waxing Crescent
Oct 30
First Quarter
Nov 6
Full
Nov 14
Last Quarter
Nov 22
New

Yesterday's Extremes

Country Highs Country Lows

Community

WunderPhotos

Upload Photos

1,765,111 photos uploaded!

Nearby

Snow Depth

Not available.

Earthquake Activity

City Distance Mag. Time & Date
No recent earthquake activity has been reported nearby.
Minimum magnitude displayed is 2.5.

Coastal Water Temperatures

Place Temperature
No Stations Reporting

Nearby Weather Stations